Terminal Aerodrome Forecast
Issued by NWS

Current Version | Previous Version | Text Only | Print | Product List | Glossary On
Versions: 1 2 3 4 5 6 7 8 9 10 11 12 13 14 15 16 17 18 19 20 21
000
FTUS43 KGRB 050231 AAA
TAFMTW
TAF AMD
KMTW 050231Z 0503/0524 VRB03KT 1/2SM FG OVC002
      TEMPO 0503/0506 1SM BR SCT002
     FM051500 18005KT P6SM BKN025
     FM051800 19008KT P6SM BKN040=

USA.gov is the U.S. government's official web portal to all federal, state and local government web resources and services.